Time;durP1;ratioP1;P1;durP2;ratioP2;P2;SDS_P1;SDS_P2;PMS_P1;PMS_P2;Temp;Humidity;BMP_temperature;BMP_pressure;BME280_temperature;BME280_humidity;BME280_pressure;Samples;Min_cycle;Max_cycle;Signal;HPM_P1;HPM_P2
2023/04/11 00:02:11;;;;;;;6.97;2.20;;;;;;;;;;4945899;29;20227;-86
2023/04/11 00:04:40;;;;;;;10.83;3.50;;;;;;;;;;4937253;29;20175;-85
2023/04/11 00:07:06;;;;;;;11.90;3.73;;;;;;;;;;4904365;29;20191;-85
2023/04/11 00:09:33;;;;;;;13.07;4.20;;;;;;;;;;4936877;29;20211;-83
2023/04/11 00:12:00;;;;;;;18.07;4.40;;;;;;;;;;4919694;29;20183;-83
2023/04/11 00:14:27;;;;;;;20.80;5.13;;;;;;;;;;4919984;29;20188;-83
2023/04/11 00:16:56;;;;;;;17.17;5.60;;;;;;;;;;4936379;29;20248;-83
2023/04/11 00:19:22;;;;;;;19.17;5.63;;;;;;;;;;4936769;29;20180;-81
2023/04/11 00:21:51;;;;;;;26.93;6.40;;;;;;;;;;4935147;29;20191;-83
2023/04/11 00:24:17;;;;;;;24.23;7.13;;;;;;;;;;4935158;29;20282;-83
2023/04/11 00:26:43;;;;;;;25.10;6.90;;;;;;;;;;4920918;29;20192;-83
2023/04/11 00:29:09;;;;;;;30.57;7.13;;;;;;;;;;4936761;29;20191;-83
2023/04/11 00:31:35;;;;;;;26.27;7.30;;;;;;;;;;4900806;29;20188;-83
2023/04/11 00:34:01;;;;;;;31.40;7.30;;;;;;;;;;4929559;29;20199;-83
2023/04/11 00:36:27;;;;;;;23.40;6.70;;;;;;;;;;4904083;29;20224;-83
2023/04/11 00:38:53;;;;;;;25.77;6.40;;;;;;;;;;4886000;29;20200;-83
2023/04/11 00:41:20;;;;;;;26.73;7.03;;;;;;;;;;4908724;29;20191;-83
2023/04/11 00:43:46;;;;;;;29.53;6.80;;;;;;;;;;4944955;29;20180;-83
2023/04/11 00:46:13;;;;;;;26.80;7.30;;;;;;;;;;4934484;29;20204;-83
2023/04/11 00:48:40;;;;;;;26.07;7.00;;;;;;;;;;4932230;29;20232;-83
2023/04/11 00:51:06;;;;;;;33.40;6.97;;;;;;;;;;4905629;29;20191;-83
2023/04/11 00:53:32;;;;;;;23.57;7.07;;;;;;;;;;4938751;29;20188;-81
2023/04/11 00:55:59;;;;;;;23.67;7.00;;;;;;;;;;4911917;29;20212;-85
2023/04/11 00:58:26;;;;;;;33.13;7.93;;;;;;;;;;4911437;29;20217;-86
2023/04/11 01:00:52;;;;;;;27.67;6.37;;;;;;;;;;4946641;29;20179;-86
2023/04/11 01:03:18;;;;;;;26.80;6.57;;;;;;;;;;4939381;29;20228;-86
2023/04/11 01:05:45;;;;;;;27.93;6.67;;;;;;;;;;4950812;29;20246;-81
2023/04/11 01:08:11;;;;;;;28.17;7.53;;;;;;;;;;4944920;29;20192;-81
2023/04/11 01:10:38;;;;;;;32.50;7.70;;;;;;;;;;4907336;29;20184;-81
2023/04/11 01:13:04;;;;;;;34.30;8.35;;;;;;;;;;4906414;29;20426;-81
2023/04/11 01:15:30;;;;;;;34.38;8.40;;;;;;;;;;4906584;29;20452;-81
2023/04/11 01:17:56;;;;;;;34.63;8.10;;;;;;;;;;4906367;29;20417;-81
2023/04/11 01:20:25;;;;;;;38.50;8.50;;;;;;;;;;4938038;29;20418;-81
2023/04/11 01:22:51;;;;;;;33.95;8.20;;;;;;;;;;4938523;29;20431;-80
2023/04/11 01:25:21;;;;;;;32.70;8.03;;;;;;;;;;4945266;29;20424;-80
2023/04/11 01:27:47;;;;;;;37.80;8.65;;;;;;;;;;4921258;29;20483;-80
2023/04/11 01:30:13;;;;;;;38.58;8.70;;;;;;;;;;4932391;29;20426;-80
2023/04/11 01:32:39;;;;;;;34.92;8.20;;;;;;;;;;4912230;29;20466;-80
2023/04/11 01:35:06;;;;;;;36.47;8.52;;;;;;;;;;4917877;29;20452;-80
2023/04/11 01:37:32;;;;;;;32.00;8.18;;;;;;;;;;4934157;29;20493;-80
2023/04/11 01:39:59;;;;;;;33.03;8.20;;;;;;;;;;4919144;29;20662;-80
2023/04/11 01:42:25;;;;;;;35.70;7.87;;;;;;;;;;4919064;29;20534;-80
2023/04/11 01:44:53;;;;;;;34.80;7.53;;;;;;;;;;4938053;29;20538;-80
2023/04/11 01:47:19;;;;;;;32.63;8.13;;;;;;;;;;4920951;29;20422;-80
2023/04/11 01:49:45;;;;;;;35.30;8.13;;;;;;;;;;4920726;29;20441;-80
2023/04/11 01:52:11;;;;;;;38.60;8.85;;;;;;;;;;4917016;29;20429;-80
2023/04/11 01:54:37;;;;;;;34.30;7.90;;;;;;;;;;4932674;29;20463;-84
2023/04/11 01:57:04;;;;;;;40.42;8.40;;;;;;;;;;4922964;29;20471;-84
2023/04/11 01:59:30;;;;;;;39.17;8.20;;;;;;;;;;4933814;29;20478;-80
2023/04/11 02:01:56;;;;;;;34.07;7.83;;;;;;;;;;4940646;29;20507;-84
2023/04/11 02:04:22;;;;;;;26.13;6.90;;;;;;;;;;4941197;29;20239;-85
2023/04/11 02:06:48;;;;;;;32.83;7.20;;;;;;;;;;4957458;29;20416;-85
2023/04/11 02:09:14;;;;;;;31.33;7.03;;;;;;;;;;4936070;29;20195;-84
2023/04/11 02:11:40;;;;;;;35.60;7.93;;;;;;;;;;4962053;28;20467;-85
2023/04/11 02:14:08;;;;;;;33.33;6.97;;;;;;;;;;4969946;28;20183;-85
2023/04/11 02:16:36;;;;;;;42.72;7.97;;;;;;;;;;4940184;29;20462;-80
2023/04/11 02:19:02;;;;;;;27.67;6.63;;;;;;;;;;4935912;28;20210;-80
2023/04/11 02:21:28;;;;;;;33.75;7.50;;;;;;;;;;4954407;29;20419;-80
2023/04/11 02:23:54;;;;;;;27.63;6.13;;;;;;;;;;4924931;29;20198;-80
2023/04/11 02:26:21;;;;;;;36.47;7.75;;;;;;;;;;4924246;29;20420;-80
2023/04/11 02:28:47;;;;;;;35.03;7.20;;;;;;;;;;4925115;28;20239;-80
2023/04/11 02:31:13;;;;;;;30.97;6.67;;;;;;;;;;4972324;28;20211;-80
2023/04/11 02:33:39;;;;;;;34.60;6.60;;;;;;;;;;4948914;29;20192;-85
2023/04/11 02:36:05;;;;;;;37.90;6.63;;;;;;;;;;4932501;29;20294;-86
2023/04/11 02:38:31;;;;;;;30.97;5.80;;;;;;;;;;4973325;28;20179;-85
2023/04/11 02:40:58;;;;;;;28.67;6.17;;;;;;;;;;4969176;28;20274;-85
2023/04/11 02:43:24;;;;;;;34.93;6.03;;;;;;;;;;4956266;29;20192;-85
2023/04/11 02:45:50;;;;;;;33.93;6.17;;;;;;;;;;4939431;28;20190;-85
2023/04/11 02:48:16;;;;;;;25.83;4.80;;;;;;;;;;4921166;29;20206;-82
2023/04/11 02:50:42;;;;;;;17.50;4.13;;;;;;;;;;4924404;28;20281;-79
2023/04/11 02:53:08;;;;;;;14.97;3.97;;;;;;;;;;4953090;29;20250;-79
2023/04/11 02:55:34;;;;;;;13.13;3.67;;;;;;;;;;4924319;29;20210;-79
2023/04/11 02:58:01;;;;;;;7.50;2.60;;;;;;;;;;4939959;28;20195;-79
2023/04/11 03:00:28;;;;;;;10.20;3.03;;;;;;;;;;4945624;28;20183;-79
2023/04/11 03:02:55;;;;;;;13.30;3.20;;;;;;;;;;4946957;29;20310;-80
2023/04/11 03:05:21;;;;;;;13.73;3.60;;;;;;;;;;4971858;28;20225;-79
2023/04/11 03:07:47;;;;;;;16.40;3.87;;;;;;;;;;4957021;29;20195;-79
2023/04/11 03:10:13;;;;;;;16.90;4.53;;;;;;;;;;4923793;29;20188;-85
2023/04/11 03:12:39;;;;;;;21.83;4.70;;;;;;;;;;4971423;28;20187;-82
2023/04/11 03:15:05;;;;;;;17.53;4.57;;;;;;;;;;4924157;29;20246;-81
2023/04/11 03:17:31;;;;;;;25.77;5.67;;;;;;;;;;4923940;29;20198;-81
2023/04/11 03:19:57;;;;;;;18.00;4.33;;;;;;;;;;4923970;29;20286;-79
2023/04/11 03:22:24;;;;;;;20.10;4.10;;;;;;;;;;4924094;29;20202;-80
2023/04/11 03:24:50;;;;;;;21.43;4.80;;;;;;;;;;4943174;29;20187;-85
2023/04/11 03:27:16;;;;;;;20.27;4.73;;;;;;;;;;4929613;29;20220;-85
2023/04/11 03:29:42;;;;;;;20.30;5.00;;;;;;;;;;4925964;28;20191;-85
2023/04/11 03:32:08;;;;;;;23.00;5.00;;;;;;;;;;4951944;29;20316;-84
2023/04/11 03:34:34;;;;;;;25.60;4.90;;;;;;;;;;4939186;29;20195;-85
2023/04/11 03:37:00;;;;;;;24.23;5.00;;;;;;;;;;4955726;28;20219;-85
2023/04/11 03:39:26;;;;;;;29.23;6.10;;;;;;;;;;4923853;29;20278;-82
2023/04/11 03:41:52;;;;;;;29.27;5.57;;;;;;;;;;4930436;28;20201;-85
2023/04/11 03:44:18;;;;;;;24.53;5.77;;;;;;;;;;4944224;29;20290;-79
2023/04/11 03:46:44;;;;;;;20.57;4.77;;;;;;;;;;4923742;29;20195;-79
2023/04/11 03:49:10;;;;;;;26.87;5.07;;;;;;;;;;4939799;28;20211;-79
2023/04/11 03:51:36;;;;;;;24.67;5.53;;;;;;;;;;4951367;29;20226;-79
2023/04/11 03:54:02;;;;;;;22.73;5.10;;;;;;;;;;4970962;28;20183;-79
2023/04/11 03:56:28;;;;;;;22.13;4.83;;;;;;;;;;4923367;28;20219;-80
2023/04/11 03:58:54;;;;;;;22.10;4.80;;;;;;;;;;4938388;29;20187;-80
2023/04/11 04:01:20;;;;;;;23.70;4.90;;;;;;;;;;4933695;28;20194;-80
2023/04/11 04:03:46;;;;;;;22.87;4.50;;;;;;;;;;4953573;29;20246;-81
2023/04/11 04:06:13;;;;;;;22.97;5.10;;;;;;;;;;4932751;29;20327;-82
2023/04/11 04:08:39;;;;;;;22.30;4.83;;;;;;;;;;4955591;28;20231;-82
2023/04/11 04:11:05;;;;;;;17.13;4.23;;;;;;;;;;4958546;28;20269;-82
2023/04/11 04:13:31;;;;;;;21.77;4.40;;;;;;;;;;4958310;28;20183;-80
2023/04/11 04:15:57;;;;;;;17.67;3.80;;;;;;;;;;4959285;23;20334;-77
2023/04/11 04:18:23;;;;;;;19.20;3.77;;;;;;;;;;4954015;28;20187;-78
2023/04/11 04:20:49;;;;;;;20.13;4.10;;;;;;;;;;4973556;28;20214;-78
2023/04/11 04:23:16;;;;;;;19.43;3.60;;;;;;;;;;4957703;28;20198;-78
2023/04/11 04:25:44;;;;;;;14.27;2.90;;;;;;;;;;4971452;28;20221;-86
2023/04/11 04:28:10;;;;;;;10.70;3.03;;;;;;;;;;4958071;28;20216;-77
2023/04/11 04:30:36;;;;;;;16.23;4.17;;;;;;;;;;4955136;28;20190;-77
2023/04/11 04:33:03;;;;;;;15.50;3.60;;;;;;;;;;4975959;28;20187;-77
2023/04/11 04:35:29;;;;;;;11.20;2.93;;;;;;;;;;4959342;28;20316;-77
2023/04/11 04:37:55;;;;;;;15.37;3.07;;;;;;;;;;4960308;28;20277;-77
2023/04/11 04:40:21;;;;;;;12.27;3.33;;;;;;;;;;4936729;28;20184;-77
2023/04/11 04:42:57;;;;;;;12.07;3.13;;;;;;;;;;4942732;28;20189;-77
2023/04/11 04:45:24;;;;;;;12.23;2.67;;;;;;;;;;4975121;28;20186;-81
2023/04/11 04:47:50;;;;;;;17.53;3.27;;;;;;;;;;4961386;28;20191;-81
2023/04/11 04:50:16;;;;;;;13.33;3.10;;;;;;;;;;4959406;28;20194;-81
2023/04/11 04:52:42;;;;;;;12.53;3.10;;;;;;;;;;4961514;28;20183;-81
2023/04/11 04:55:08;;;;;;;12.73;3.40;;;;;;;;;;4943786;28;20186;-81
2023/04/11 04:57:34;;;;;;;11.57;2.87;;;;;;;;;;4976651;28;20191;-81
2023/04/11 05:00:10;;;;;;;11.67;2.97;;;;;;;;;;4957326;28;20342;-81
2023/04/11 05:02:36;;;;;;;10.33;2.60;;;;;;;;;;4971655;28;20182;-86
2023/04/11 05:05:03;;;;;;;13.90;3.07;;;;;;;;;;4954160;28;20183;-87
2023/04/11 05:07:29;;;;;;;14.93;3.20;;;;;;;;;;4955724;28;20234;-87
2023/04/11 05:09:55;;;;;;;10.40;2.83;;;;;;;;;;4958924;28;20191;-87
2023/04/11 05:12:25;;;;;;;10.47;2.80;;;;;;;;;;4942188;29;20195;-87
2023/04/11 05:14:52;;;;;;;12.23;3.23;;;;;;;;;;4942539;28;20179;-87
2023/04/11 05:17:18;;;;;;;14.23;2.97;;;;;;;;;;4948683;28;20221;-87
2023/04/11 05:19:44;;;;;;;14.13;3.30;;;;;;;;;;4951253;28;20183;-77
2023/04/11 05:22:10;;;;;;;12.73;2.93;;;;;;;;;;4969407;28;20187;-77
2023/04/11 05:24:36;;;;;;;10.73;2.77;;;;;;;;;;4933152;28;20194;-77
2023/04/11 05:27:02;;;;;;;10.57;2.70;;;;;;;;;;4935830;28;20175;-77
2023/04/11 05:29:28;;;;;;;14.97;3.27;;;;;;;;;;4952033;28;20274;-77
2023/04/11 05:31:54;;;;;;;10.33;2.60;;;;;;;;;;4969887;28;20229;-77
2023/04/11 05:34:20;;;;;;;11.27;2.60;;;;;;;;;;4937267;28;20192;-77
2023/04/11 05:36:46;;;;;;;10.77;2.53;;;;;;;;;;4934184;28;20229;-77
2023/04/11 05:39:12;;;;;;;10.80;2.67;;;;;;;;;;4968325;28;20179;-77
2023/04/11 05:41:39;;;;;;;13.07;2.60;;;;;;;;;;4951860;28;20179;-77
2023/04/11 05:44:05;;;;;;;8.03;2.73;;;;;;;;;;4951867;28;20187;-77
2023/04/11 05:46:34;;;;;;;8.50;2.30;;;;;;;;;;4953934;28;20214;-77
2023/04/11 05:49:00;;;;;;;9.47;2.37;;;;;;;;;;4950668;28;20270;-77
2023/04/11 05:51:26;;;;;;;12.60;3.08;;;;;;;;;;4964598;28;20441;-77
2023/04/11 05:53:52;;;;;;;10.53;2.53;;;;;;;;;;4968834;28;20183;-77
2023/04/11 05:56:19;;;;;;;13.10;2.50;;;;;;;;;;4941789;28;20210;-77
2023/04/11 05:58:45;;;;;;;9.33;2.17;;;;;;;;;;4944486;28;20194;-77
2023/04/11 06:01:17;;;;;;;12.57;2.83;;;;;;;;;;4959566;28;20497;-77
2023/04/11 06:03:44;;;;;;;12.32;2.92;;;;;;;;;;4953118;28;20412;-77
2023/04/11 06:06:10;;;;;;;10.32;2.75;;;;;;;;;;4952183;28;20437;-78
2023/04/11 06:08:37;;;;;;;10.17;2.80;;;;;;;;;;4938367;28;20463;-86
2023/04/11 06:11:03;;;;;;;11.55;2.67;;;;;;;;;;4949193;28;20446;-86
2023/04/11 06:13:29;;;;;;;9.43;2.80;;;;;;;;;;4952443;28;20432;-87
2023/04/11 06:15:55;;;;;;;11.60;2.70;;;;;;;;;;4951178;28;20465;-87
2023/04/11 06:18:21;;;;;;;10.32;2.88;;;;;;;;;;4935236;28;20412;-86
2023/04/11 06:20:48;;;;;;;9.23;2.47;;;;;;;;;;4953900;28;20433;-87
2023/04/11 06:23:14;;;;;;;12.17;2.90;;;;;;;;;;4959817;28;20418;-87
2023/04/11 06:25:40;;;;;;;10.20;2.30;;;;;;;;;;4975854;28;20525;-78
2023/04/11 06:28:06;;;;;;;9.10;2.53;;;;;;;;;;4938597;29;20428;-77
2023/04/11 06:30:32;;;;;;;11.93;2.70;;;;;;;;;;4956424;28;20431;-77
2023/04/11 06:32:58;;;;;;;12.33;2.57;;;;;;;;;;4947874;29;20183;-78
2023/04/11 06:35:24;;;;;;;12.63;2.37;;;;;;;;;;4973710;28;20214;-78
2023/04/11 06:37:53;;;;;;;10.03;2.90;;;;;;;;;;4944215;28;20183;-87
2023/04/11 06:40:20;;;;;;;11.95;2.80;;;;;;;;;;4960331;28;20424;-87
2023/04/11 06:42:46;;;;;;;10.35;2.63;;;;;;;;;;4969410;28;20430;-78
2023/04/11 06:45:13;;;;;;;8.37;2.23;;;;;;;;;;4959025;28;20175;-79
2023/04/11 06:47:39;;;;;;;14.07;2.67;;;;;;;;;;4958391;28;20178;-78
2023/04/11 06:50:05;;;;;;;8.63;2.57;;;;;;;;;;4966249;28;20214;-79
2023/04/11 06:52:31;;;;;;;9.20;2.20;;;;;;;;;;4936293;28;20186;-79
2023/04/11 06:54:57;;;;;;;11.13;2.70;;;;;;;;;;4973856;28;20197;-89
2023/04/11 06:57:23;;;;;;;10.90;2.63;;;;;;;;;;4944217;28;20183;-89
2023/04/11 06:59:49;;;;;;;9.53;2.43;;;;;;;;;;4945999;29;20191;-79
2023/04/11 07:02:15;;;;;;;10.47;2.90;;;;;;;;;;4924839;29;20246;-78
2023/04/11 07:04:41;;;;;;;13.80;3.55;;;;;;;;;;4943826;28;20422;-80
2023/04/11 07:07:07;;;;;;;11.50;3.00;;;;;;;;;;4959169;28;20179;-79
2023/04/11 07:09:33;;;;;;;11.87;2.83;;;;;;;;;;4976585;28;20183;-78
2023/04/11 07:12:00;;;;;;;13.13;2.90;;;;;;;;;;4975832;28;20179;-78
2023/04/11 07:14:26;;;;;;;10.97;2.70;;;;;;;;;;4924531;29;20184;-79
2023/04/11 07:16:52;;;;;;;10.57;2.93;;;;;;;;;;4941722;28;20313;-78
2023/04/11 07:19:18;;;;;;;12.27;2.80;;;;;;;;;;4943222;28;20189;-79
2023/04/11 07:21:44;;;;;;;9.77;2.70;;;;;;;;;;4928012;29;20182;-79
2023/04/11 07:24:12;;;;;;;10.53;2.60;;;;;;;;;;4947930;28;20246;-80
2023/04/11 07:26:41;;;;;;;12.33;2.73;;;;;;;;;;4956646;28;20191;-79
2023/04/11 07:29:07;;;;;;;11.13;2.50;;;;;;;;;;4943555;28;20213;-79
2023/04/11 07:31:33;;;;;;;9.50;2.57;;;;;;;;;;4971330;28;20238;-79
2023/04/11 07:34:00;;;;;;;8.70;2.70;;;;;;;;;;4939716;29;20187;-78
2023/04/11 07:36:26;;;;;;;9.33;2.80;;;;;;;;;;4939532;29;20314;-78
2023/04/11 07:38:52;;;;;;;13.90;3.07;;;;;;;;;;4956626;29;20179;-78
2023/04/11 07:41:18;;;;;;;11.80;2.70;;;;;;;;;;4969533;28;20211;-79
2023/04/11 07:43:44;;;;;;;12.45;3.30;;;;;;;;;;4970252;28;20466;-79
2023/04/11 07:46:10;;;;;;;10.20;3.00;;;;;;;;;;4958254;28;20183;-78
2023/04/11 07:48:36;;;;;;;9.57;2.40;;;;;;;;;;4950082;28;20183;-88
2023/04/11 07:51:03;;;;;;;13.70;2.97;;;;;;;;;;4974319;28;20197;-89
2023/04/11 07:53:31;;;;;;;9.07;2.70;;;;;;;;;;4944006;29;20183;-79
2023/04/11 07:55:57;;;;;;;10.30;2.73;;;;;;;;;;4972467;28;20218;-79
2023/04/11 07:58:23;;;;;;;9.27;2.97;;;;;;;;;;4941891;28;20426;-79
2023/04/11 08:00:49;;;;;;;16.63;2.77;;;;;;;;;;4935592;28;20186;-79
2023/04/11 08:03:16;;;;;;;11.17;2.77;;;;;;;;;;4958624;28;20186;-79
2023/04/11 08:05:42;;;;;;;11.15;1.95;;;;;;;;;;4975103;28;20388;-79
2023/04/11 08:08:08;;;;;;;13.33;2.47;;;;;;;;;;4947439;28;20218;-80
2023/04/11 08:10:34;;;;;;;10.10;2.33;;;;;;;;;;4973932;28;20261;-79
2023/04/11 08:13:00;;;;;;;7.73;2.33;;;;;;;;;;4958142;28;20188;-79
2023/04/11 08:15:26;;;;;;;9.63;2.47;;;;;;;;;;4968317;28;20446;-79
2023/04/11 08:17:56;;;;;;;9.03;3.00;;;;;;;;;;4959082;28;20191;-79
2023/04/11 08:20:22;;;;;;;11.17;2.77;;;;;;;;;;4972549;28;20198;-80
2023/04/11 08:22:49;;;;;;;12.50;3.23;;;;;;;;;;4965583;28;20447;-79
2023/04/11 08:25:15;;;;;;;13.35;3.10;;;;;;;;;;4952770;28;20418;-78
2023/04/11 08:27:41;;;;;;;9.52;2.88;;;;;;;;;;4936592;29;20526;-89
2023/04/11 08:30:07;;;;;;;9.18;2.88;;;;;;;;;;4938128;29;20424;-89
2023/04/11 08:32:34;;;;;;;11.48;2.80;;;;;;;;;;4953717;28;20438;-89
2023/04/11 08:35:00;;;;;;;7.95;2.58;;;;;;;;;;4940277;29;20443;-89
2023/04/11 08:37:27;;;;;;;11.15;2.60;;;;;;;;;;4938237;29;20412;-90
2023/04/11 08:39:53;;;;;;;6.95;2.30;;;;;;;;;;4938250;29;20404;-80
2023/04/11 08:42:26;;;;;;;6.47;2.10;;;;;;;;;;4944459;29;20274;-80
2023/04/11 08:44:53;;;;;;;8.10;2.40;;;;;;;;;;4942090;28;20420;-80
2023/04/11 08:47:19;;;;;;;8.90;2.30;;;;;;;;;;4936300;28;20201;-80
2023/04/11 08:49:45;;;;;;;9.15;2.63;;;;;;;;;;4957171;28;20414;-80
2023/04/11 08:52:11;;;;;;;11.65;2.80;;;;;;;;;;4957772;28;20415;-80
2023/04/11 08:54:37;;;;;;;7.13;2.22;;;;;;;;;;4945816;28;20439;-80
2023/04/11 08:57:03;;;;;;;6.20;2.23;;;;;;;;;;4939276;28;20221;-88
2023/04/11 08:59:29;;;;;;;6.78;2.10;;;;;;;;;;4968011;28;20430;-90
2023/04/11 09:02:09;;;;;;;7.15;2.28;;;;;;;;;;4972762;28;20426;-88
2023/04/11 09:04:40;;;;;;;8.27;2.10;;;;;;;;;;4957524;28;20175;-91
2023/04/11 09:07:06;;;;;;;6.00;1.80;;;;;;;;;;4954097;29;20282;-90
2023/04/11 09:09:33;;;;;;;5.90;2.23;;;;;;;;;;4958070;28;20191;-87
2023/04/11 09:12:00;;;;;;;7.33;2.40;;;;;;;;;;4973939;28;20182;-84
2023/04/11 09:14:26;;;;;;;7.57;2.30;;;;;;;;;;4938214;29;20184;-84
2023/04/11 09:16:53;;;;;;;6.33;2.50;;;;;;;;;;4970034;28;20525;-83
2023/04/11 09:19:23;;;;;;;7.13;2.10;;;;;;;;;;4977683;28;20186;-84
2023/04/11 09:21:49;;;;;;;7.90;2.13;;;;;;;;;;4978391;28;20269;-83
2023/04/11 09:24:16;;;;;;;7.80;2.10;;;;;;;;;;4960584;28;20198;-83
2023/04/11 09:26:42;;;;;;;7.23;2.20;;;;;;;;;;4960783;28;20191;-84
2023/04/11 09:29:08;;;;;;;7.73;2.30;;;;;;;;;;4960096;28;20190;-84
2023/04/11 09:31:41;;;;;;;7.33;2.30;;;;;;;;;;4960667;28;20195;-83
2023/04/11 09:34:07;;;;;;;9.47;2.20;;;;;;;;;;4958809;29;20180;-83
2023/04/11 09:36:33;;;;;;;8.13;2.37;;;;;;;;;;4959144;29;20305;-84
2023/04/11 09:39:01;;;;;;;6.57;2.07;;;;;;;;;;4942992;28;20215;-84
2023/04/11 09:41:34;;;;;;;8.00;2.40;;;;;;;;;;4978210;28;20167;-84
2023/04/11 09:44:00;;;;;;;10.03;2.20;;;;;;;;;;4961841;28;20179;-84
2023/04/11 09:46:26;;;;;;;8.17;2.60;;;;;;;;;;4952445;29;20332;-80
2023/04/11 09:48:53;;;;;;;8.27;2.17;;;;;;;;;;4957270;29;20214;-80
2023/04/11 09:51:19;;;;;;;8.35;2.80;;;;;;;;;;4972696;28;20421;-80
2023/04/11 09:53:46;;;;;;;8.13;2.50;;;;;;;;;;4959626;28;20190;-80
2023/04/11 09:56:12;;;;;;;8.90;2.45;;;;;;;;;;4950421;29;20522;-80
2023/04/11 09:58:38;;;;;;;5.63;2.43;;;;;;;;;;4959461;28;20195;-81
2023/04/11 10:01:09;;;;;;;9.05;2.70;;;;;;;;;;4959975;28;20476;-81
2023/04/11 10:03:36;;;;;;;9.23;2.10;;;;;;;;;;4960722;28;20186;-91
2023/04/11 10:06:04;;;;;;;10.13;2.30;;;;;;;;;;4960466;28;20205;-90
2023/04/11 10:08:32;;;;;;;6.47;2.00;;;;;;;;;;4960400;28;20190;-89
2023/04/11 10:11:02;;;;;;;9.33;2.13;;;;;;;;;;4960309;28;20217;-89
2023/04/11 10:13:38;;;;;;;7.07;1.97;;;;;;;;;;4960234;28;20187;-89
2023/04/11 10:16:08;;;;;;;5.77;2.00;;;;;;;;;;4960078;28;20226;-81
2023/04/11 10:18:39;;;;;;;6.57;1.90;;;;;;;;;;4957025;28;20180;-89
2023/04/11 10:21:26;;;;;;;5.57;1.77;;;;;;;;;;4955625;28;20246;-89
2023/04/11 10:24:10;;;;;;;5.55;1.70;;;;;;;;;;4959828;28;20414;-88
2023/04/11 10:26:52;;;;;;;6.67;1.60;;;;;;;;;;4977377;28;20257;-89
2023/04/11 10:29:33;;;;;;;5.57;2.00;;;;;;;;;;4952357;28;20198;-89
2023/04/11 10:32:12;;;;;;;5.80;1.83;;;;;;;;;;4940839;29;20184;-89
2023/04/11 10:34:40;;;;;;;6.65;1.90;;;;;;;;;;4940526;29;20424;-89
2023/04/11 10:37:07;;;;;;;6.57;1.90;;;;;;;;;;4941286;29;20222;-80
2023/04/11 10:39:45;;;;;;;5.03;1.70;;;;;;;;;;4940895;29;20179;-80
2023/04/11 10:42:30;;;;;;;4.30;1.57;;;;;;;;;;4940832;29;20219;-80
2023/04/11 10:45:23;;;;;;;5.37;1.70;;;;;;;;;;4940722;28;20207;-87
2023/04/11 10:47:55;;;;;;;7.63;1.90;;;;;;;;;;4973184;28;20226;-90
2023/04/11 10:50:27;;;;;;;5.60;1.63;;;;;;;;;;4960181;28;20194;-90
2023/04/11 10:53:00;;;;;;;4.77;1.80;;;;;;;;;;4959661;28;20190;-90
2023/04/11 10:55:27;;;;;;;4.83;1.50;;;;;;;;;;4958934;28;20234;-90
2023/04/11 10:58:02;;;;;;;6.93;1.67;;;;;;;;;;4943911;29;20187;-91
2023/04/11 11:00:29;;;;;;;3.30;1.50;;;;;;;;;;4957556;29;20178;-90
2023/04/11 11:02:55;;;;;;;5.40;1.80;;;;;;;;;;4945521;29;20278;-88
2023/04/11 11:05:23;;;;;;;5.50;1.60;;;;;;;;;;4959823;28;20185;-90
2023/04/11 11:07:49;;;;;;;4.93;1.60;;;;;;;;;;4959584;28;20210;-89
2023/04/11 11:10:15;;;;;;;8.90;1.70;;;;;;;;;;4957441;28;20184;-84
2023/04/11 11:12:52;;;;;;;7.05;2.00;;;;;;;;;;4936044;29;20490;-85
2023/04/11 11:15:18;;;;;;;3.23;1.40;;;;;;;;;;4942165;28;20182;-85
2023/04/11 11:17:44;;;;;;;4.33;1.50;;;;;;;;;;4972603;28;20226;-84
2023/04/11 11:20:18;;;;;;;5.77;1.40;;;;;;;;;;4943227;28;20193;-84
2023/04/11 11:22:57;;;;;;;6.47;1.80;;;;;;;;;;4957356;29;20181;-84
2023/04/11 11:25:24;;;;;;;4.33;1.50;;;;;;;;;;4940005;29;20171;-84
2023/04/11 11:27:58;;;;;;;5.22;2.00;;;;;;;;;;4956551;29;20495;-84
2023/04/11 11:30:24;;;;;;;4.93;1.70;;;;;;;;;;4940856;28;20230;-84
2023/04/11 11:32:50;;;;;;;7.28;2.10;;;;;;;;;;4958153;28;20425;-83
2023/04/11 11:35:16;;;;;;;6.87;1.90;;;;;;;;;;4958734;28;20418;-84
2023/04/11 11:37:42;;;;;;;5.47;1.60;;;;;;;;;;4941687;29;20239;-84
2023/04/11 11:40:12;;;;;;;6.53;1.50;;;;;;;;;;4956588;28;20179;-84
2023/04/11 11:42:39;;;;;;;5.38;1.77;;;;;;;;;;4956733;28;20399;-89
2023/04/11 11:45:15;;;;;;;7.97;2.00;;;;;;;;;;4943111;28;20178;-89
2023/04/11 11:47:42;;;;;;;5.53;1.90;;;;;;;;;;4949463;28;20181;-90
2023/04/11 11:50:08;;;;;;;6.57;1.70;;;;;;;;;;4958848;28;20179;-90
2023/04/11 11:52:43;;;;;;;4.30;1.83;;;;;;;;;;4942836;28;20209;-90
2023/04/11 11:55:18;;;;;;;6.47;2.00;;;;;;;;;;4947895;28;20265;-85
2023/04/11 11:57:48;;;;;;;5.87;1.70;;;;;;;;;;4956968;28;20186;-83
2023/04/11 12:00:15;;;;;;;6.87;1.97;;;;;;;;;;4958429;28;20183;-80
2023/04/11 12:02:41;;;;;;;5.90;1.90;;;;;;;;;;4967846;28;20179;-80
2023/04/11 12:05:10;;;;;;;5.57;1.80;;;;;;;;;;4956619;28;20189;-80
2023/04/11 12:07:37;;;;;;;7.57;1.90;;;;;;;;;;4975300;28;20179;-80
2023/04/11 12:10:07;;;;;;;7.80;2.20;;;;;;;;;;4975371;28;20179;-80
2023/04/11 12:12:34;;;;;;;7.13;2.10;;;;;;;;;;4972675;28;20227;-80
2023/04/11 12:15:02;;;;;;;6.57;1.97;;;;;;;;;;4965820;28;20245;-81
2023/04/11 12:17:34;;;;;;;4.30;1.43;;;;;;;;;;4955583;29;20263;-81
2023/04/11 12:20:01;;;;;;;5.73;1.77;;;;;;;;;;4955881;29;20182;-80
2023/04/11 12:22:27;;;;;;;7.07;1.90;;;;;;;;;;4955133;29;20198;-80
2023/04/11 12:25:03;;;;;;;6.37;1.70;;;;;;;;;;4939349;29;20192;-81
2023/04/11 12:27:29;;;;;;;5.67;2.00;;;;;;;;;;4972333;28;20301;-81
2023/04/11 12:29:55;;;;;;;5.53;1.67;;;;;;;;;;4938399;29;20227;-80
2023/04/11 12:32:22;;;;;;;4.90;2.00;;;;;;;;;;4953985;29;20438;-83
2023/04/11 12:34:48;;;;;;;9.33;2.40;;;;;;;;;;4954860;29;20172;-84
2023/04/11 12:37:14;;;;;;;6.88;2.33;;;;;;;;;;4953903;29;20447;-83
2023/04/11 12:39:41;;;;;;;7.30;1.97;;;;;;;;;;4954408;29;20230;-83
2023/04/11 12:42:07;;;;;;;6.30;2.20;;;;;;;;;;4957413;28;20458;-83
2023/04/11 12:44:33;;;;;;;5.87;2.13;;;;;;;;;;4958204;28;20186;-84
2023/04/11 12:46:59;;;;;;;6.10;2.28;;;;;;;;;;4955341;28;20434;-84
2023/04/11 12:49:26;;;;;;;6.37;2.17;;;;;;;;;;4955393;28;20187;-81
2023/04/11 12:51:52;;;;;;;5.17;1.83;;;;;;;;;;4939457;28;20195;-80
2023/04/11 12:54:18;;;;;;;7.88;2.03;;;;;;;;;;4941799;29;20518;-81
2023/04/11 12:56:44;;;;;;;4.93;2.20;;;;;;;;;;4947719;28;20486;-80
2023/04/11 12:59:10;;;;;;;7.70;2.30;;;;;;;;;;4961365;28;20443;-81
2023/04/11 13:01:36;;;;;;;9.57;2.25;;;;;;;;;;4941955;29;20408;-80
2023/04/11 13:04:03;;;;;;;8.50;2.20;;;;;;;;;;4945202;28;20186;-80
2023/04/11 13:06:29;;;;;;;8.80;2.40;;;;;;;;;;4959645;28;20524;-84
2023/04/11 13:08:56;;;;;;;8.40;2.60;;;;;;;;;;4961182;28;20443;-83
2023/04/11 13:11:22;;;;;;;6.88;2.20;;;;;;;;;;4958316;29;20673;-83
2023/04/11 13:13:48;;;;;;;5.18;1.85;;;;;;;;;;4960456;28;20472;-84
2023/04/11 13:16:14;;;;;;;6.75;2.10;;;;;;;;;;4975886;28;20446;-83
2023/04/11 13:18:41;;;;;;;5.33;1.80;;;;;;;;;;4960920;28;20183;-84
2023/04/11 13:21:07;;;;;;;6.10;2.05;;;;;;;;;;4958594;28;20573;-83
2023/04/11 13:23:34;;;;;;;7.55;2.28;;;;;;;;;;4954379;28;20427;-81
2023/04/11 13:26:00;;;;;;;5.67;2.13;;;;;;;;;;4958332;28;20419;-81
2023/04/11 13:28:27;;;;;;;5.03;1.80;;;;;;;;;;4927337;29;20213;-84
2023/04/11 13:30:53;;;;;;;5.53;1.93;;;;;;;;;;4971245;28;20250;-80
2023/04/11 13:33:19;;;;;;;4.70;1.73;;;;;;;;;;4946413;28;20449;-80
2023/04/11 13:35:45;;;;;;;5.40;1.87;;;;;;;;;;4942841;28;20222;-80
2023/04/11 13:38:11;;;;;;;6.17;1.90;;;;;;;;;;4923363;28;20227;-79
2023/04/11 13:40:39;;;;;;;5.82;1.92;;;;;;;;;;4929213;28;20495;-80
2023/04/11 13:43:05;;;;;;;5.37;1.93;;;;;;;;;;4957850;28;20281;-80
2023/04/11 13:45:31;;;;;;;7.90;1.80;;;;;;;;;;4943067;28;20179;-81
2023/04/11 13:47:57;;;;;;;3.83;1.60;;;;;;;;;;4946001;28;20182;-80
2023/04/11 13:50:23;;;;;;;5.90;1.70;;;;;;;;;;4937119;29;20176;-80
2023/04/11 13:52:49;;;;;;;4.20;1.50;;;;;;;;;;4945660;28;20186;-80
2023/04/11 13:55:16;;;;;;;4.13;1.67;;;;;;;;;;4940617;29;20193;-81
2023/04/11 13:57:42;;;;;;;5.20;1.93;;;;;;;;;;4964683;28;20175;-81
2023/04/11 14:00:11;;;;;;;7.43;2.20;;;;;;;;;;4939974;29;20420;-83
2023/04/11 14:02:37;;;;;;;7.40;2.10;;;;;;;;;;4957379;28;20424;-82
2023/04/11 14:05:04;;;;;;;6.85;1.90;;;;;;;;;;4965355;28;20418;-84
2023/04/11 14:07:30;;;;;;;6.68;2.10;;;;;;;;;;4968743;28;20423;-83
2023/04/11 14:09:56;;;;;;;5.80;1.90;;;;;;;;;;4924402;28;20418;-83
2023/04/11 14:12:22;;;;;;;5.15;2.00;;;;;;;;;;4970088;28;20449;-91
2023/04/11 14:14:48;;;;;;;7.57;2.10;;;;;;;;;;4959120;28;20422;-91
2023/04/11 14:17:15;;;;;;;7.25;2.10;;;;;;;;;;4950470;28;20462;-80
2023/04/11 14:19:41;;;;;;;7.05;2.10;;;;;;;;;;4975855;28;20424;-80
2023/04/11 14:22:07;;;;;;;5.80;1.98;;;;;;;;;;4941223;28;20493;-80
2023/04/11 14:24:33;;;;;;;7.40;2.20;;;;;;;;;;4939113;28;20430;-80
2023/04/11 14:27:01;;;;;;;6.78;2.15;;;;;;;;;;4940358;28;20442;-79
2023/04/11 14:29:29;;;;;;;8.05;2.50;;;;;;;;;;4938161;28;20527;-81
2023/04/11 14:31:56;;;;;;;8.07;2.40;;;;;;;;;;4926748;28;20466;-80
2023/04/11 14:34:22;;;;;;;8.07;2.20;;;;;;;;;;4936652;28;20481;-81
2023/04/11 14:36:48;;;;;;;7.18;2.20;;;;;;;;;;4934193;28;20452;-80